sensor_id;sensor_type;location;lat;lon;timestamp;temperature;humidity
74155;DHT22;62509;46.248;6.018;2023-11-21T00:00:16;9.00;99.90
74155;DHT22;62509;46.248;6.018;2023-11-21T00:05:20;8.80;99.90
74155;DHT22;62509;46.248;6.018;2023-11-21T00:10:24;8.80;99.90
74155;DHT22;62509;46.248;6.018;2023-11-21T00:15:29;8.70;99.90
74155;DHT22;62509;46.248;6.018;2023-11-21T00:20:33;8.70;99.90
74155;DHT22;62509;46.248;6.018;2023-11-21T00:25:36;8.70;99.90
74155;DHT22;62509;46.248;6.018;2023-11-21T00:30:40;8.70;99.90
74155;DHT22;62509;46.248;6.018;2023-11-21T00:35:44;8.80;99.90
74155;DHT22;62509;46.248;6.018;2023-11-21T00:40:47;8.70;99.90
74155;DHT22;62509;46.248;6.018;2023-11-21T00:45:51;8.70;99.90
74155;DHT22;62509;46.248;6.018;2023-11-21T00:50:54;8.50;99.90
74155;DHT22;62509;46.248;6.018;2023-11-21T00:55:58;8.40;99.90
74155;DHT22;62509;46.248;6.018;2023-11-21T01:01:03;8.30;99.90
74155;DHT22;62509;46.248;6.018;2023-11-21T01:06:06;8.30;99.90
74155;DHT22;62509;46.248;6.018;2023-11-21T01:11:10;8.20;99.90
74155;DHT22;62509;46.248;6.018;2023-11-21T01:16:16;7.90;99.90
74155;DHT22;62509;46.248;6.018;2023-11-21T01:21:19;8.00;99.90
74155;DHT22;62509;46.248;6.018;2023-11-21T01:26:22;8.00;99.90
74155;DHT22;62509;46.248;6.018;2023-11-21T01:31:26;8.10;99.90
74155;DHT22;62509;46.248;6.018;2023-11-21T01:36:32;8.30;99.90
74155;DHT22;62509;46.248;6.018;2023-11-21T01:41:35;8.40;99.90
74155;DHT22;62509;46.248;6.018;2023-11-21T01:46:39;8.50;99.90
74155;DHT22;62509;46.248;6.018;2023-11-21T01:51:43;8.50;99.90
74155;DHT22;62509;46.248;6.018;2023-11-21T01:56:47;8.40;99.90
74155;DHT22;62509;46.248;6.018;2023-11-21T02:01:52;8.40;99.90
74155;DHT22;62509;46.248;6.018;2023-11-21T02:06:55;8.50;99.90
74155;DHT22;62509;46.248;6.018;2023-11-21T02:11:58;8.40;99.90
74155;DHT22;62509;46.248;6.018;2023-11-21T02:17:03;8.40;99.90
74155;DHT22;62509;46.248;6.018;2023-11-21T02:22:06;8.40;99.90
74155;DHT22;62509;46.248;6.018;2023-11-21T02:27:11;8.40;99.90
74155;DHT22;62509;46.248;6.018;2023-11-21T02:32:18;8.40;99.90
74155;DHT22;62509;46.248;6.018;2023-11-21T02:37:24;8.30;99.90
74155;DHT22;62509;46.248;6.018;2023-11-21T02:42:29;8.30;99.90
74155;DHT22;62509;46.248;6.018;2023-11-21T02:47:32;8.20;99.90
74155;DHT22;62509;46.248;6.018;2023-11-21T02:52:35;8.30;99.90
74155;DHT22;62509;46.248;6.018;2023-11-21T02:57:39;8.30;99.90
74155;DHT22;62509;46.248;6.018;2023-11-21T03:02:43;8.30;99.90
74155;DHT22;62509;46.248;6.018;2023-11-21T03:07:46;8.30;99.90
74155;DHT22;62509;46.248;6.018;2023-11-21T03:12:51;8.50;99.90
74155;DHT22;62509;46.248;6.018;2023-11-21T03:17:54;8.50;99.90
74155;DHT22;62509;46.248;6.018;2023-11-21T03:22:57;8.50;99.90
74155;DHT22;62509;46.248;6.018;2023-11-21T03:28:02;8.40;99.90
74155;DHT22;62509;46.248;6.018;2023-11-21T03:33:06;8.40;99.90
74155;DHT22;62509;46.248;6.018;2023-11-21T03:38:09;8.40;99.90
74155;DHT22;62509;46.248;6.018;2023-11-21T03:43:14;8.50;99.90
74155;DHT22;62509;46.248;6.018;2023-11-21T03:48:17;8.40;99.90
74155;DHT22;62509;46.248;6.018;2023-11-21T03:53:20;8.40;99.90
74155;DHT22;62509;46.248;6.018;2023-11-21T03:58:25;8.30;99.90
74155;DHT22;62509;46.248;6.018;2023-11-21T04:03:28;8.40;99.90
74155;DHT22;62509;46.248;6.018;2023-11-21T04:08:31;8.40;99.90
74155;DHT22;62509;46.248;6.018;2023-11-21T04:13:36;8.30;99.90
74155;DHT22;62509;46.248;6.018;2023-11-21T04:18:40;8.30;99.90
74155;DHT22;62509;46.248;6.018;2023-11-21T04:23:43;8.40;99.90
74155;DHT22;62509;46.248;6.018;2023-11-21T04:28:47;8.40;99.90
74155;DHT22;62509;46.248;6.018;2023-11-21T04:33:51;8.30;99.90
74155;DHT22;62509;46.248;6.018;2023-11-21T04:38:54;8.30;99.90
74155;DHT22;62509;46.248;6.018;2023-11-21T04:43:59;8.20;99.90
74155;DHT22;62509;46.248;6.018;2023-11-21T04:49:03;8.20;99.90
74155;DHT22;62509;46.248;6.018;2023-11-21T04:54:06;8.20;99.90
74155;DHT22;62509;46.248;6.018;2023-11-21T04:59:10;8.20;99.90
74155;DHT22;62509;46.248;6.018;2023-11-21T05:04:14;8.20;99.90
74155;DHT22;62509;46.248;6.018;2023-11-21T05:09:17;8.10;99.90
74155;DHT22;62509;46.248;6.018;2023-11-21T05:14:21;8.10;99.90
74155;DHT22;62509;46.248;6.018;2023-11-21T05:19:25;8.00;99.90
74155;DHT22;62509;46.248;6.018;2023-11-21T05:24:28;8.00;99.90
74155;DHT22;62509;46.248;6.018;2023-11-21T05:29:33;8.00;99.90
74155;DHT22;62509;46.248;6.018;2023-11-21T05:34:36;8.00;99.90
74155;DHT22;62509;46.248;6.018;2023-11-21T05:39:39;7.80;99.90
74155;DHT22;62509;46.248;6.018;2023-11-21T05:44:44;7.90;99.90
74155;DHT22;62509;46.248;6.018;2023-11-21T05:49:47;7.90;99.90
74155;DHT22;62509;46.248;6.018;2023-11-21T05:54:52;7.80;99.90
74155;DHT22;62509;46.248;6.018;2023-11-21T05:59:57;7.90;99.90
74155;DHT22;62509;46.248;6.018;2023-11-21T06:05:00;7.90;99.90
74155;DHT22;62509;46.248;6.018;2023-11-21T06:10:03;7.90;99.90
74155;DHT22;62509;46.248;6.018;2023-11-21T06:15:12;7.80;99.90
74155;DHT22;62509;46.248;6.018;2023-11-21T06:20:16;7.80;99.90
74155;DHT22;62509;46.248;6.018;2023-11-21T06:25:20;7.70;99.90
74155;DHT22;62509;46.248;6.018;2023-11-21T06:30:25;7.70;99.90
74155;DHT22;62509;46.248;6.018;2023-11-21T06:35:28;7.60;99.90
74155;DHT22;62509;46.248;6.018;2023-11-21T06:40:34;7.60;99.90
74155;DHT22;62509;46.248;6.018;2023-11-21T06:45:38;7.60;99.90
74155;DHT22;62509;46.248;6.018;2023-11-21T06:50:41;7.70;99.90
74155;DHT22;62509;46.248;6.018;2023-11-21T06:55:45;7.70;99.90
74155;DHT22;62509;46.248;6.018;2023-11-21T07:00:49;7.80;99.90
74155;DHT22;62509;46.248;6.018;2023-11-21T07:05:57;7.80;99.90
74155;DHT22;62509;46.248;6.018;2023-11-21T07:11:00;7.80;99.90
74155;DHT22;62509;46.248;6.018;2023-11-21T07:16:06;7.80;99.90
74155;DHT22;62509;46.248;6.018;2023-11-21T07:21:10;7.80;99.90
74155;DHT22;62509;46.248;6.018;2023-11-21T07:26:14;7.80;99.90
74155;DHT22;62509;46.248;6.018;2023-11-21T07:31:18;7.90;99.90
74155;DHT22;62509;46.248;6.018;2023-11-21T07:36:24;7.70;99.90
74155;DHT22;62509;46.248;6.018;2023-11-21T07:41:27;7.70;99.90
74155;DHT22;62509;46.248;6.018;2023-11-21T07:46:34;7.70;99.90
74155;DHT22;62509;46.248;6.018;2023-11-21T07:51:37;7.60;99.90
74155;DHT22;62509;46.248;6.018;2023-11-21T07:56:40;7.70;99.90
74155;DHT22;62509;46.248;6.018;2023-11-21T08:01:45;7.80;99.90
74155;DHT22;62509;46.248;6.018;2023-11-21T08:06:49;7.80;99.90
74155;DHT22;62509;46.248;6.018;2023-11-21T08:11:52;7.80;99.90
74155;DHT22;62509;46.248;6.018;2023-11-21T08:16:57;7.80;99.90
74155;DHT22;62509;46.248;6.018;2023-11-21T08:22:00;7.90;99.90
74155;DHT22;62509;46.248;6.018;2023-11-21T08:27:04;7.90;99.90
74155;DHT22;62509;46.248;6.018;2023-11-21T08:32:10;7.90;99.90
74155;DHT22;62509;46.248;6.018;2023-11-21T08:37:14;8.10;99.90
74155;DHT22;62509;46.248;6.018;2023-11-21T08:42:18;8.10;99.90
74155;DHT22;62509;46.248;6.018;2023-11-21T08:47:23;8.30;99.90
74155;DHT22;62509;46.248;6.018;2023-11-21T08:52:27;8.50;99.90
74155;DHT22;62509;46.248;6.018;2023-11-21T08:57:31;8.70;99.90
74155;DHT22;62509;46.248;6.018;2023-11-21T09:02:35;8.80;99.90
74155;DHT22;62509;46.248;6.018;2023-11-21T09:07:39;8.80;99.90
74155;DHT22;62509;46.248;6.018;2023-11-21T09:12:43;8.90;99.90
74155;DHT22;62509;46.248;6.018;2023-11-21T09:17:48;9.10;99.90
74155;DHT22;62509;46.248;6.018;2023-11-21T09:22:51;9.30;99.90
74155;DHT22;62509;46.248;6.018;2023-11-21T09:27:55;9.40;99.90
74155;DHT22;62509;46.248;6.018;2023-11-21T09:33:00;9.70;99.90
74155;DHT22;62509;46.248;6.018;2023-11-21T09:38:03;9.90;99.90
74155;DHT22;62509;46.248;6.018;2023-11-21T09:43:14;10.20;99.90
74155;DHT22;62509;46.248;6.018;2023-11-21T09:48:21;10.20;99.90
74155;DHT22;62509;46.248;6.018;2023-11-21T09:53:26;10.00;99.90
74155;DHT22;62509;46.248;6.018;2023-11-21T09:58:31;10.00;99.90
74155;DHT22;62509;46.248;6.018;2023-11-21T10:03:37;10.20;99.90
74155;DHT22;62509;46.248;6.018;2023-11-21T10:08:41;10.20;99.90
74155;DHT22;62509;46.248;6.018;2023-11-21T10:13:56;10.30;99.90
74155;DHT22;62509;46.248;6.018;2023-11-21T10:19:02;10.40;99.90
74155;DHT22;62509;46.248;6.018;2023-11-21T10:24:12;10.10;99.90
74155;DHT22;62509;46.248;6.018;2023-11-21T10:29:17;10.10;99.90
74155;DHT22;62509;46.248;6.018;2023-11-21T10:34:22;9.90;99.90
74155;DHT22;62509;46.248;6.018;2023-11-21T10:39:25;10.30;99.90
74155;DHT22;62509;46.248;6.018;2023-11-21T10:44:32;10.20;99.90
74155;DHT22;62509;46.248;6.018;2023-11-21T10:49:37;10.40;99.90
74155;DHT22;62509;46.248;6.018;2023-11-21T10:54:42;10.80;99.90
74155;DHT22;62509;46.248;6.018;2023-11-21T10:59:46;10.90;99.90
74155;DHT22;62509;46.248;6.018;2023-11-21T11:04:52;10.90;99.90
74155;DHT22;62509;46.248;6.018;2023-11-21T11:09:58;10.70;99.90
74155;DHT22;62509;46.248;6.018;2023-11-21T11:15:02;10.50;99.90
74155;DHT22;62509;46.248;6.018;2023-11-21T11:20:08;10.60;99.90
74155;DHT22;62509;46.248;6.018;2023-11-21T11:25:20;10.40;99.90
74155;DHT22;62509;46.248;6.018;2023-11-21T11:30:34;10.50;99.90
74155;DHT22;62509;46.248;6.018;2023-11-21T11:35:49;10.40;99.90
74155;DHT22;62509;46.248;6.018;2023-11-21T11:40:56;10.30;99.90
74155;DHT22;62509;46.248;6.018;2023-11-21T11:46:01;10.60;99.90
74155;DHT22;62509;46.248;6.018;2023-11-21T11:51:09;10.40;99.90
74155;DHT22;62509;46.248;6.018;2023-11-21T11:56:25;10.30;99.90
74155;DHT22;62509;46.248;6.018;2023-11-21T12:01:31;10.20;99.90
74155;DHT22;62509;46.248;6.018;2023-11-21T12:06:37;10.40;99.90
74155;DHT22;62509;46.248;6.018;2023-11-21T12:11:41;10.40;99.90
74155;DHT22;62509;46.248;6.018;2023-11-21T12:16:45;10.20;99.90
74155;DHT22;62509;46.248;6.018;2023-11-21T12:21:51;10.30;99.90
74155;DHT22;62509;46.248;6.018;2023-11-21T12:26:54;10.60;99.90
74155;DHT22;62509;46.248;6.018;2023-11-21T12:31:57;10.70;99.90
74155;DHT22;62509;46.248;6.018;2023-11-21T12:37:02;10.60;99.90
74155;DHT22;62509;46.248;6.018;2023-11-21T12:42:06;10.40;99.90
74155;DHT22;62509;46.248;6.018;2023-11-21T12:47:09;10.20;99.90
74155;DHT22;62509;46.248;6.018;2023-11-21T12:52:17;10.20;99.90
74155;DHT22;62509;46.248;6.018;2023-11-21T12:57:21;10.00;99.90
74155;DHT22;62509;46.248;6.018;2023-11-21T13:02:29;9.90;99.90
74155;DHT22;62509;46.248;6.018;2023-11-21T13:07:41;9.90;99.90
74155;DHT22;62509;46.248;6.018;2023-11-21T13:12:48;10.20;99.90
74155;DHT22;62509;46.248;6.018;2023-11-21T13:17:54;10.20;99.90
74155;DHT22;62509;46.248;6.018;2023-11-21T13:23:06;10.20;99.90
74155;DHT22;62509;46.248;6.018;2023-11-21T13:28:10;10.30;99.90
74155;DHT22;62509;46.248;6.018;2023-11-21T13:33:15;10.30;99.90
74155;DHT22;62509;46.248;6.018;2023-11-21T13:38:22;10.40;99.90
74155;DHT22;62509;46.248;6.018;2023-11-21T13:43:25;10.20;99.90
74155;DHT22;62509;46.248;6.018;2023-11-21T13:48:30;10.40;99.90
74155;DHT22;62509;46.248;6.018;2023-11-21T13:53:43;10.60;99.90
74155;DHT22;62509;46.248;6.018;2023-11-21T13:58:49;10.40;99.90
74155;DHT22;62509;46.248;6.018;2023-11-21T14:03:54;10.30;99.90
74155;DHT22;62509;46.248;6.018;2023-11-21T14:09:04;10.30;99.90
74155;DHT22;62509;46.248;6.018;2023-11-21T14:14:09;10.10;99.90
74155;DHT22;62509;46.248;6.018;2023-11-21T14:19:12;10.10;99.90
74155;DHT22;62509;46.248;6.018;2023-11-21T14:24:19;10.00;99.90
74155;DHT22;62509;46.248;6.018;2023-11-21T14:29:25;9.90;99.90
74155;DHT22;62509;46.248;6.018;2023-11-21T14:34:29;9.80;99.90
74155;DHT22;62509;46.248;6.018;2023-11-21T14:39:34;9.70;99.90
74155;DHT22;62509;46.248;6.018;2023-11-21T14:44:43;9.70;99.90
74155;DHT22;62509;46.248;6.018;2023-11-21T14:49:46;9.70;99.90
74155;DHT22;62509;46.248;6.018;2023-11-21T14:54:57;9.80;99.90
74155;DHT22;62509;46.248;6.018;2023-11-21T15:00:21;9.70;99.90
74155;DHT22;62509;46.248;6.018;2023-11-21T15:05:42;9.70;99.90
74155;DHT22;62509;46.248;6.018;2023-11-21T15:10:47;9.60;99.90
74155;DHT22;62509;46.248;6.018;2023-11-21T15:15:55;9.60;99.90
74155;DHT22;62509;46.248;6.018;2023-11-21T15:21:05;9.60;99.90
74155;DHT22;62509;46.248;6.018;2023-11-21T15:26:14;9.50;99.90
74155;DHT22;62509;46.248;6.018;2023-11-21T15:31:17;9.40;99.90
74155;DHT22;62509;46.248;6.018;2023-11-21T15:36:26;9.40;99.90
74155;DHT22;62509;46.248;6.018;2023-11-21T15:41:32;9.30;99.90
74155;DHT22;62509;46.248;6.018;2023-11-21T15:46:35;9.20;99.90
74155;DHT22;62509;46.248;6.018;2023-11-21T15:51:40;9.10;99.90
74155;DHT22;62509;46.248;6.018;2023-11-21T15:56:48;9.00;99.90
74155;DHT22;62509;46.248;6.018;2023-11-21T16:01:51;8.90;99.90
74155;DHT22;62509;46.248;6.018;2023-11-21T16:06:54;8.80;99.90
74155;DHT22;62509;46.248;6.018;2023-11-21T16:12:01;8.70;99.90
74155;DHT22;62509;46.248;6.018;2023-11-21T16:17:05;8.60;99.90
74155;DHT22;62509;46.248;6.018;2023-11-21T16:22:09;8.50;99.90
74155;DHT22;62509;46.248;6.018;2023-11-21T16:27:17;8.40;99.90
74155;DHT22;62509;46.248;6.018;2023-11-21T16:32:20;8.30;99.90
74155;DHT22;62509;46.248;6.018;2023-11-21T16:37:23;8.30;99.90
74155;DHT22;62509;46.248;6.018;2023-11-21T16:42:28;8.30;99.90
74155;DHT22;62509;46.248;6.018;2023-11-21T16:47:32;8.20;99.90
74155;DHT22;62509;46.248;6.018;2023-11-21T16:52:36;8.30;99.90
74155;DHT22;62509;46.248;6.018;2023-11-21T16:57:42;8.30;99.90
74155;DHT22;62509;46.248;6.018;2023-11-21T17:02:46;8.30;99.90
74155;DHT22;62509;46.248;6.018;2023-11-21T17:07:50;8.20;99.90
74155;DHT22;62509;46.248;6.018;2023-11-21T17:12:56;8.20;99.90
74155;DHT22;62509;46.248;6.018;2023-11-21T17:17:59;8.20;99.90
74155;DHT22;62509;46.248;6.018;2023-11-21T17:23:05;8.20;99.90
74155;DHT22;62509;46.248;6.018;2023-11-21T17:28:11;8.20;99.90
74155;DHT22;62509;46.248;6.018;2023-11-21T17:33:15;8.20;99.90
74155;DHT22;62509;46.248;6.018;2023-11-21T17:38:19;8.20;99.90
74155;DHT22;62509;46.248;6.018;2023-11-21T17:43:24;8.30;99.90
74155;DHT22;62509;46.248;6.018;2023-11-21T17:48:28;8.30;99.90
74155;DHT22;62509;46.248;6.018;2023-11-21T17:53:32;8.30;99.90
74155;DHT22;62509;46.248;6.018;2023-11-21T17:58:37;8.30;99.90
74155;DHT22;62509;46.248;6.018;2023-11-21T18:03:40;8.30;99.90
74155;DHT22;62509;46.248;6.018;2023-11-21T18:08:44;8.30;99.90
74155;DHT22;62509;46.248;6.018;2023-11-21T18:13:48;8.20;99.90
74155;DHT22;62509;46.248;6.018;2023-11-21T18:18:52;8.10;99.90
74155;DHT22;62509;46.248;6.018;2023-11-21T18:23:56;8.00;99.90
74155;DHT22;62509;46.248;6.018;2023-11-21T18:29:00;7.90;99.90
74155;DHT22;62509;46.248;6.018;2023-11-21T18:34:04;8.00;99.90
74155;DHT22;62509;46.248;6.018;2023-11-21T18:39:08;8.10;99.90
74155;DHT22;62509;46.248;6.018;2023-11-21T18:44:17;8.10;99.90
74155;DHT22;62509;46.248;6.018;2023-11-21T18:49:21;8.20;99.90
74155;DHT22;62509;46.248;6.018;2023-11-21T18:54:25;8.10;99.90
74155;DHT22;62509;46.248;6.018;2023-11-21T18:59:29;8.10;99.90
74155;DHT22;62509;46.248;6.018;2023-11-21T19:04:33;8.10;99.90
74155;DHT22;62509;46.248;6.018;2023-11-21T19:09:36;8.20;99.90
74155;DHT22;62509;46.248;6.018;2023-11-21T19:14:41;8.30;99.90
74155;DHT22;62509;46.248;6.018;2023-11-21T19:19:47;8.20;99.90
74155;DHT22;62509;46.248;6.018;2023-11-21T19:24:51;8.30;99.90
74155;DHT22;62509;46.248;6.018;2023-11-21T19:29:56;8.30;99.90
74155;DHT22;62509;46.248;6.018;2023-11-21T19:35:00;8.40;99.90
74155;DHT22;62509;46.248;6.018;2023-11-21T19:40:05;8.40;99.90
74155;DHT22;62509;46.248;6.018;2023-11-21T19:45:11;8.40;99.90
74155;DHT22;62509;46.248;6.018;2023-11-21T19:50:16;8.50;99.90
74155;DHT22;62509;46.248;6.018;2023-11-21T19:55:19;8.50;99.90
74155;DHT22;62509;46.248;6.018;2023-11-21T20:00:24;8.50;99.90
74155;DHT22;62509;46.248;6.018;2023-11-21T20:05:27;8.50;99.90
74155;DHT22;62509;46.248;6.018;2023-11-21T20:10:30;8.50;99.90
74155;DHT22;62509;46.248;6.018;2023-11-21T20:15:35;8.50;99.90
74155;DHT22;62509;46.248;6.018;2023-11-21T20:20:38;8.50;99.90
74155;DHT22;62509;46.248;6.018;2023-11-21T20:25:43;8.50;99.90
74155;DHT22;62509;46.248;6.018;2023-11-21T20:30:48;8.40;99.90
74155;DHT22;62509;46.248;6.018;2023-11-21T20:35:54;8.40;99.90
74155;DHT22;62509;46.248;6.018;2023-11-21T20:40:57;8.50;99.90
74155;DHT22;62509;46.248;6.018;2023-11-21T20:46:02;8.40;99.90
74155;DHT22;62509;46.248;6.018;2023-11-21T20:51:05;8.30;99.90
74155;DHT22;62509;46.248;6.018;2023-11-21T20:56:08;8.40;99.90
74155;DHT22;62509;46.248;6.018;2023-11-21T21:01:13;8.40;99.90
74155;DHT22;62509;46.248;6.018;2023-11-21T21:06:17;8.40;99.90
74155;DHT22;62509;46.248;6.018;2023-11-21T21:11:23;8.40;99.90
74155;DHT22;62509;46.248;6.018;2023-11-21T21:16:28;8.30;99.90
74155;DHT22;62509;46.248;6.018;2023-11-21T21:21:33;8.20;99.90
74155;DHT22;62509;46.248;6.018;2023-11-21T21:26:36;8.20;99.90
74155;DHT22;62509;46.248;6.018;2023-11-21T21:31:41;8.10;99.90
74155;DHT22;62509;46.248;6.018;2023-11-21T21:36:45;8.00;99.90
74155;DHT22;62509;46.248;6.018;2023-11-21T21:41:48;8.10;99.90
74155;DHT22;62509;46.248;6.018;2023-11-21T21:46:52;8.20;99.90
74155;DHT22;62509;46.248;6.018;2023-11-21T21:51:56;8.20;99.90
74155;DHT22;62509;46.248;6.018;2023-11-21T21:57:01;8.20;99.90
74155;DHT22;62509;46.248;6.018;2023-11-21T22:02:06;8.20;99.90
74155;DHT22;62509;46.248;6.018;2023-11-21T22:07:10;8.20;99.90
74155;DHT22;62509;46.248;6.018;2023-11-21T22:12:13;8.20;99.90
74155;DHT22;62509;46.248;6.018;2023-11-21T22:17:18;8.20;99.90
74155;DHT22;62509;46.248;6.018;2023-11-21T22:22:21;8.20;99.90
74155;DHT22;62509;46.248;6.018;2023-11-21T22:27:25;8.30;99.90
74155;DHT22;62509;46.248;6.018;2023-11-21T22:32:30;8.30;99.90
74155;DHT22;62509;46.248;6.018;2023-11-21T22:37:33;8.30;99.90
74155;DHT22;62509;46.248;6.018;2023-11-21T22:42:36;8.30;99.90
74155;DHT22;62509;46.248;6.018;2023-11-21T22:47:41;8.30;99.90
74155;DHT22;62509;46.248;6.018;2023-11-21T22:52:45;8.30;99.90
74155;DHT22;62509;46.248;6.018;2023-11-21T22:57:48;8.30;99.90
74155;DHT22;62509;46.248;6.018;2023-11-21T23:02:52;8.30;99.90
74155;DHT22;62509;46.248;6.018;2023-11-21T23:07:57;8.20;99.90
74155;DHT22;62509;46.248;6.018;2023-11-21T23:13:00;8.30;99.90
74155;DHT22;62509;46.248;6.018;2023-11-21T23:18:05;8.30;99.90
74155;DHT22;62509;46.248;6.018;2023-11-21T23:23:10;8.20;99.90
74155;DHT22;62509;46.248;6.018;2023-11-21T23:28:14;8.20;99.90
74155;DHT22;62509;46.248;6.018;2023-11-21T23:33:22;8.20;99.90
74155;DHT22;62509;46.248;6.018;2023-11-21T23:38:32;8.20;99.90
74155;DHT22;62509;46.248;6.018;2023-11-21T23:43:35;8.20;99.90
74155;DHT22;62509;46.248;6.018;2023-11-21T23:48:39;8.20;99.90
74155;DHT22;62509;46.248;6.018;2023-11-21T23:53:44;8.20;99.90
74155;DHT22;62509;46.248;6.018;2023-11-21T23:58:47;8.20;99.90
